createdAt,value
2017-09-01T00:01:10.340Z,3.73
2017-09-01T00:03:38.682Z,3.03
2017-09-01T00:06:06.993Z,3.70
2017-09-01T00:08:35.306Z,3.13
2017-09-01T00:11:03.646Z,2.50
2017-09-01T00:13:31.994Z,2.67
2017-09-01T00:16:00.315Z,3.57
2017-09-01T00:18:28.651Z,3.60
2017-09-01T00:20:56.990Z,4.10
2017-09-01T00:23:25.326Z,4.00
2017-09-01T00:25:53.643Z,3.57
2017-09-01T00:28:21.997Z,4.10
2017-09-01T00:30:50.323Z,4.80
2017-09-01T00:33:18.636Z,4.23
2017-09-01T00:35:46.979Z,4.00
2017-09-01T00:38:15.309Z,3.70
2017-09-01T00:40:43.628Z,3.60
2017-09-01T00:43:12.004Z,3.07
2017-09-01T00:45:40.339Z,2.40
2017-09-01T00:48:08.674Z,2.60
2017-09-01T00:50:37.053Z,2.40
2017-09-01T00:53:05.370Z,2.87
2017-09-01T00:55:33.686Z,3.40
2017-09-01T00:58:02.026Z,2.70
2017-09-01T01:00:30.344Z,3.00
2017-09-01T01:02:58.663Z,2.63
2017-09-01T01:05:27.015Z,2.90
2017-09-01T01:07:55.344Z,3.10
2017-09-01T01:10:23.677Z,2.90
2017-09-01T01:12:52.030Z,2.80
2017-09-01T01:15:20.352Z,3.40
2017-09-01T01:17:48.688Z,2.30
2017-09-01T01:20:17.034Z,3.27
2017-09-01T01:22:45.354Z,2.80
2017-09-01T01:32:09.768Z,2.97
2017-09-01T01:34:38.083Z,2.07
2017-09-01T01:37:06.399Z,3.43
2017-09-01T01:39:34.747Z,4.10
2017-09-01T01:42:03.071Z,4.13
2017-09-01T01:44:31.401Z,3.30
2017-09-01T01:46:59.746Z,3.17
2017-09-01T01:49:28.058Z,2.90
2017-09-01T01:51:56.379Z,2.60
2017-09-01T01:54:24.758Z,2.60
2017-09-01T01:56:53.099Z,2.00
2017-09-01T01:59:21.422Z,3.00
2017-09-01T02:01:49.766Z,3.07
2017-09-01T02:04:18.099Z,2.87
2017-09-01T02:06:46.421Z,3.10
2017-09-01T02:09:14.771Z,3.10
2017-09-01T02:11:43.096Z,3.13
2017-09-01T02:14:11.422Z,2.97
2017-09-01T02:16:39.767Z,3.10
2017-09-01T02:19:08.089Z,2.67
2017-09-01T02:21:36.403Z,2.53
2017-09-01T02:24:04.749Z,3.00
2017-09-01T02:26:33.071Z,3.90
2017-09-01T02:29:01.387Z,3.27
2017-09-01T02:31:29.742Z,3.70
2017-09-01T02:33:58.060Z,4.03
2017-09-01T02:36:26.381Z,3.27
2017-09-01T02:38:54.735Z,3.30
2017-09-01T02:41:23.048Z,3.80
2017-09-01T02:43:51.362Z,3.90
2017-09-01T02:46:19.716Z,2.70
2017-09-01T02:48:48.048Z,2.53
2017-09-01T02:51:16.367Z,3.17
2017-09-01T02:53:44.706Z,4.07
2017-09-01T02:56:13.022Z,3.43
2017-09-01T02:58:41.347Z,3.40
2017-09-01T03:01:09.694Z,3.40
2017-09-01T03:03:38.020Z,3.50
2017-09-01T03:06:06.337Z,3.43
2017-09-01T03:08:34.682Z,4.70
2017-09-01T03:11:03.002Z,4.20
2017-09-01T03:13:31.318Z,4.97
2017-09-01T03:15:59.666Z,5.40
2017-09-01T03:18:27.988Z,4.00
2017-09-01T03:20:56.302Z,5.27
2017-09-01T03:23:24.643Z,4.93
2017-09-01T03:25:52.963Z,5.73
2017-09-01T03:28:21.294Z,7.67
2017-09-01T03:30:49.648Z,5.30
2017-09-01T03:33:17.971Z,4.67
2017-09-01T03:35:46.290Z,4.97
2017-09-01T03:38:14.637Z,4.40
2017-09-01T03:40:42.961Z,3.47
2017-09-01T03:43:11.294Z,3.40
2017-09-01T03:45:39.636Z,3.60
2017-09-01T03:48:07.953Z,3.60
2017-09-01T03:50:36.269Z,3.17
2017-09-01T03:53:04.616Z,3.67
2017-09-01T03:55:32.962Z,3.10
2017-09-01T03:58:01.295Z,2.73
2017-09-01T04:00:29.655Z,2.50
2017-09-01T04:02:57.975Z,2.33
2017-09-01T04:05:26.295Z,2.17
2017-09-01T04:07:54.634Z,2.77
2017-09-01T04:10:22.972Z,2.13
2017-09-01T04:12:51.283Z,2.77
2017-09-01T04:15:19.631Z,3.40
2017-09-01T04:17:47.942Z,3.50
2017-09-01T04:20:16.274Z,4.00
2017-09-01T04:22:44.617Z,3.63
2017-09-01T04:25:12.931Z,3.43
2017-09-01T04:27:41.241Z,3.30
2017-09-01T04:30:09.596Z,2.93
2017-09-01T04:32:37.955Z,3.53
2017-09-01T04:35:06.271Z,4.43
2017-09-01T04:37:34.605Z,4.63
2017-09-01T04:40:02.908Z,4.27
2017-09-01T04:42:31.230Z,3.93
2017-09-01T04:44:59.570Z,3.60
2017-09-01T04:47:27.896Z,4.60
2017-09-01T04:49:56.201Z,6.07
2017-09-01T04:52:24.556Z,5.80
2017-09-01T04:54:54.639Z,10.53
2017-09-01T04:57:23.064Z,3.20
2017-09-01T04:59:51.469Z,5.33
2017-09-01T05:02:19.790Z,4.53
2017-09-01T05:04:48.110Z,9.70
2017-09-01T05:07:16.450Z,5.70
2017-09-01T05:09:44.762Z,6.60
2017-09-01T05:12:13.078Z,11.10
2017-09-01T05:14:41.423Z,4.20
2017-09-01T05:17:09.734Z,7.07
2017-09-01T05:19:38.046Z,5.20
2017-09-01T05:22:06.386Z,7.07
2017-09-01T05:24:34.699Z,3.50
2017-09-01T05:27:03.021Z,4.13
2017-09-01T05:29:31.366Z,4.10
2017-09-01T05:31:59.685Z,4.77
2017-09-01T05:34:28.011Z,3.97
2017-09-01T05:36:56.350Z,2.77
2017-09-01T05:39:24.672Z,3.37
2017-09-01T05:41:52.993Z,5.60
2017-09-01T05:44:21.338Z,4.40
2017-09-01T05:46:51.149Z,4.47
2017-09-01T05:49:19.542Z,5.50
2017-09-01T05:51:47.891Z,3.67
2017-09-01T05:54:16.202Z,5.83
2017-09-01T05:56:44.532Z,7.60
2017-09-01T05:59:12.895Z,5.57
2017-09-01T06:01:41.210Z,6.10
2017-09-01T06:04:09.518Z,9.97
2017-09-01T06:06:37.858Z,5.47
2017-09-01T06:09:06.171Z,3.27
2017-09-01T06:11:34.491Z,4.57
2017-09-01T06:14:02.839Z,4.73
2017-09-01T06:16:31.159Z,5.77
2017-09-01T06:18:59.482Z,7.57
2017-09-01T06:21:27.826Z,5.13
2017-09-01T06:23:56.141Z,9.07
2017-09-01T06:26:24.458Z,4.67
2017-09-01T06:28:52.795Z,5.53
2017-09-01T06:31:21.106Z,3.10
2017-09-01T06:33:49.434Z,4.63
2017-09-01T06:36:17.784Z,3.30
2017-09-01T06:38:46.094Z,2.90
2017-09-01T06:41:14.406Z,2.63
2017-09-01T06:43:42.747Z,3.80
2017-09-01T06:46:11.066Z,3.27
2017-09-01T06:48:39.384Z,4.70
2017-09-01T06:51:07.729Z,3.30
2017-09-01T06:53:36.054Z,3.53
2017-09-01T06:56:04.383Z,3.80
2017-09-01T06:58:32.729Z,3.87
2017-09-01T07:01:01.057Z,3.50
2017-09-01T07:03:29.394Z,3.70
2017-09-01T07:05:57.763Z,3.40
2017-09-01T07:08:26.083Z,3.00
2017-09-01T07:10:54.405Z,3.50
2017-09-01T07:13:22.750Z,3.40
2017-09-01T07:15:51.074Z,3.33
2017-09-01T07:18:19.394Z,4.00
2017-09-01T07:20:47.750Z,4.30
2017-09-01T07:23:16.067Z,3.20
2017-09-01T07:25:45.166Z,3.80
2017-09-01T07:28:13.511Z,4.00
2017-09-01T07:30:41.834Z,4.57
2017-09-01T07:33:10.152Z,3.47
2017-09-01T07:35:38.497Z,5.10
2017-09-01T07:38:06.814Z,4.00
2017-09-01T07:40:35.139Z,3.90
2017-09-01T07:43:03.482Z,4.17
2017-09-01T07:45:31.798Z,5.17
2017-09-01T07:48:00.490Z,3.83
2017-09-01T07:50:28.826Z,4.53
2017-09-01T07:52:57.145Z,3.73
2017-09-01T07:55:25.458Z,4.50
2017-09-01T07:57:53.793Z,5.93
2017-09-01T08:00:22.119Z,4.43
2017-09-01T08:02:50.434Z,4.47
2017-09-01T08:05:18.786Z,6.37
2017-09-01T08:07:47.102Z,4.93
2017-09-01T08:10:15.422Z,5.27
2017-09-01T08:12:43.758Z,5.60
2017-09-01T08:15:12.073Z,5.10
2017-09-01T08:17:40.395Z,5.73
2017-09-01T08:20:08.757Z,5.73
2017-09-01T08:22:37.070Z,6.43
2017-09-01T08:25:05.386Z,4.67
2017-09-01T08:27:33.732Z,5.50
2017-09-01T08:30:02.052Z,5.80
2017-09-01T08:32:30.382Z,5.23
2017-09-01T08:34:58.722Z,5.50
2017-09-01T08:37:27.042Z,6.50
2017-09-01T08:39:55.360Z,4.80
2017-09-01T08:42:23.703Z,6.67
2017-09-01T08:44:52.022Z,5.80
2017-09-01T08:47:20.337Z,5.40
2017-09-01T08:49:48.681Z,4.90
2017-09-01T08:52:17.002Z,4.90
2017-09-01T08:54:45.335Z,5.70
2017-09-01T08:57:13.699Z,5.30
2017-09-01T08:59:42.012Z,5.67
2017-09-01T09:02:10.332Z,5.93
2017-09-01T09:04:38.682Z,4.70
2017-09-01T09:07:06.999Z,5.03
2017-09-01T09:09:35.311Z,4.60
2017-09-01T09:12:03.655Z,4.90
2017-09-01T09:14:31.970Z,4.57
2017-09-01T09:17:00.291Z,4.80
2017-09-01T09:19:28.663Z,4.10
2017-09-01T09:21:56.990Z,3.37
2017-09-01T09:24:25.314Z,3.30
2017-09-01T09:26:53.659Z,3.60
2017-09-01T09:29:21.970Z,3.80
2017-09-01T09:31:50.282Z,4.53
2017-09-01T09:34:18.627Z,4.20
2017-09-01T09:36:46.951Z,3.10
2017-09-01T09:39:15.279Z,3.70
2017-09-01T09:41:43.631Z,2.47
2017-09-01T09:44:11.942Z,2.40
2017-09-01T09:46:40.250Z,2.13
2017-09-01T09:49:08.592Z,2.60
2017-09-01T09:51:36.911Z,1.57
2017-09-01T09:54:05.226Z,2.07
2017-09-01T09:56:33.564Z,1.77
2017-09-01T09:59:01.876Z,2.00
2017-09-01T10:01:30.190Z,1.60
2017-09-01T10:03:58.530Z,1.57
2017-09-01T10:06:26.855Z,1.90
2017-09-01T10:08:55.171Z,1.33
2017-09-01T10:11:23.538Z,1.60
2017-09-01T10:13:51.854Z,1.20
2017-09-01T10:16:20.165Z,1.83
2017-09-01T10:18:48.507Z,1.40
2017-09-01T10:21:16.818Z,1.80
2017-09-01T10:23:45.135Z,1.10
2017-09-01T10:26:13.475Z,1.60
2017-09-01T10:28:41.803Z,1.50
2017-09-01T10:31:10.130Z,1.73
2017-09-01T10:33:38.478Z,2.10
2017-09-01T10:36:06.814Z,1.80
2017-09-01T10:38:35.127Z,2.23
2017-09-01T10:41:03.470Z,2.20
2017-09-01T10:43:31.786Z,1.80
2017-09-01T10:46:00.140Z,2.10
2017-09-01T10:48:46.360Z,1.60
2017-09-01T10:54:40.222Z,1.37
2017-09-01T10:57:26.338Z,1.43
2017-09-01T10:59:54.678Z,0.93
2017-09-01T11:02:22.994Z,0.73
2017-09-01T11:04:51.306Z,1.00
2017-09-01T11:07:19.665Z,0.77
2017-09-01T11:09:48.038Z,0.90
2017-09-01T11:12:16.353Z,0.90
2017-09-01T11:14:44.691Z,1.07
2017-09-01T11:17:13.009Z,1.07
2017-09-01T11:19:46.766Z,0.77
2017-09-01T11:22:20.582Z,1.20
2017-09-01T11:24:48.898Z,1.13
2017-09-01T11:27:17.239Z,0.90
2017-09-01T11:29:46.023Z,0.87
2017-09-01T11:32:14.338Z,1.00
2017-09-01T11:34:42.682Z,1.30
2017-09-01T11:37:11.007Z,0.87
2017-09-01T11:39:39.318Z,1.33
2017-09-01T11:42:07.660Z,0.90
2017-09-01T11:44:35.970Z,0.87
2017-09-01T11:47:04.336Z,1.30
2017-09-01T11:49:32.676Z,0.87
2017-09-01T11:52:00.989Z,1.10
2017-09-01T11:54:29.294Z,1.00
2017-09-01T11:56:57.640Z,0.80
2017-09-01T11:59:25.954Z,1.40
2017-09-01T12:01:54.268Z,0.90
2017-09-01T12:04:22.614Z,0.73
2017-09-01T12:06:50.921Z,1.00
2017-09-01T12:09:19.240Z,1.40
2017-09-01T12:11:47.588Z,0.90
2017-09-01T12:14:15.912Z,1.10
2017-09-01T12:16:44.232Z,0.87
2017-09-01T12:19:12.574Z,0.93
2017-09-01T12:21:40.903Z,1.30
2017-09-01T12:24:09.219Z,1.07
2017-09-01T12:26:37.571Z,1.03
2017-09-01T12:29:05.894Z,1.00
2017-09-01T12:31:34.207Z,1.10
2017-09-01T12:34:02.546Z,1.03
2017-09-01T12:36:30.866Z,0.80
2017-09-01T12:38:59.183Z,1.20
2017-09-01T12:41:27.546Z,0.97
2017-09-01T12:43:55.858Z,0.80
2017-09-01T12:46:24.174Z,1.00
2017-09-01T12:48:52.512Z,1.10
2017-09-01T12:51:20.859Z,0.70
2017-09-01T12:53:49.189Z,0.90
2017-09-01T12:56:17.536Z,1.00
2017-09-01T12:58:45.850Z,1.60
2017-09-01T13:01:14.162Z,0.87
2017-09-01T13:03:42.514Z,1.03
2017-09-01T13:06:10.838Z,0.97
2017-09-01T13:08:39.155Z,0.70
2017-09-01T13:11:07.500Z,1.00
2017-09-01T13:13:35.815Z,1.50
2017-09-01T13:16:04.139Z,0.90
2017-09-01T13:18:32.492Z,1.50
2017-09-01T13:21:00.811Z,1.20
2017-09-01T13:23:29.128Z,1.00
2017-09-01T13:25:57.471Z,1.00
2017-09-01T13:28:25.816Z,1.30
2017-09-01T13:30:54.126Z,2.13
2017-09-01T13:33:22.470Z,1.10
2017-09-01T13:35:50.783Z,1.10
2017-09-01T13:38:19.094Z,1.80
2017-09-01T13:40:47.434Z,1.30
2017-09-01T13:43:15.756Z,0.90
2017-09-01T13:45:44.078Z,1.20
2017-09-01T13:48:12.424Z,1.30
2017-09-01T13:50:40.734Z,1.20
2017-09-01T13:53:09.055Z,1.07
2017-09-01T13:55:37.399Z,1.33
2017-09-01T13:58:05.714Z,1.67
2017-09-01T14:00:34.032Z,1.40
2017-09-01T14:03:02.375Z,1.00
2017-09-01T14:05:30.686Z,1.70
2017-09-01T14:07:58.997Z,1.67
2017-09-01T14:10:27.345Z,1.10
2017-09-01T14:12:55.654Z,1.30
2017-09-01T14:15:23.977Z,1.57
2017-09-01T14:17:52.330Z,0.90
2017-09-01T14:20:20.648Z,1.10
2017-09-01T14:22:48.957Z,1.10
2017-09-01T14:25:17.294Z,1.17
2017-09-01T14:27:45.608Z,1.20
2017-09-01T14:30:13.931Z,1.00
2017-09-01T14:32:42.295Z,0.97
2017-09-01T14:35:10.610Z,0.90
2017-09-01T14:37:38.926Z,0.80
2017-09-01T14:40:07.267Z,1.00
2017-09-01T14:42:35.583Z,1.00
2017-09-01T14:45:03.900Z,0.80
2017-09-01T14:47:32.252Z,1.20
2017-09-01T14:50:00.578Z,0.73
2017-09-01T14:52:28.895Z,0.87
2017-09-01T14:54:57.252Z,1.33
2017-09-01T14:57:25.567Z,1.33
2017-09-01T14:59:53.890Z,1.67
2017-09-01T15:02:22.226Z,1.47
2017-09-01T15:04:50.546Z,1.20
2017-09-01T15:07:18.865Z,1.20
2017-09-01T15:09:47.208Z,1.40
2017-09-01T15:12:15.536Z,1.27
2017-09-01T15:14:43.858Z,1.90
2017-09-01T15:17:12.203Z,1.70
2017-09-01T15:19:40.523Z,1.40
2017-09-01T15:22:08.839Z,1.60
2017-09-01T15:24:37.226Z,2.00
2017-09-01T15:27:05.545Z,1.50
2017-09-01T15:29:33.856Z,1.27
2017-09-01T15:32:02.198Z,1.30
2017-09-01T15:34:30.514Z,1.77
2017-09-01T15:36:58.836Z,1.20
2017-09-01T15:39:27.184Z,1.40
2017-09-01T15:41:55.502Z,1.53
2017-09-01T15:44:23.814Z,1.43
2017-09-01T15:46:52.155Z,1.10
2017-09-01T15:49:20.471Z,1.40
2017-09-01T15:51:48.791Z,1.47
2017-09-01T15:54:17.128Z,1.83
2017-09-01T15:56:45.446Z,1.43
2017-09-01T15:59:13.762Z,1.20
2017-09-01T16:01:42.113Z,1.43
2017-09-01T16:04:10.431Z,1.30
2017-09-01T16:06:38.749Z,1.27
2017-09-01T16:09:07.103Z,1.57
2017-09-01T16:11:35.418Z,1.40
2017-09-01T16:14:03.735Z,1.47
2017-09-01T16:16:32.069Z,1.60
2017-09-01T16:19:00.395Z,1.80
2017-09-01T16:21:28.708Z,1.70
2017-09-01T16:23:57.054Z,1.20
2017-09-01T16:26:25.366Z,1.60
2017-09-01T16:28:53.683Z,1.77
2017-09-01T16:31:22.022Z,1.40
2017-09-01T16:33:50.343Z,1.40
2017-09-01T16:36:18.659Z,1.20
2017-09-01T16:38:47.002Z,1.77
2017-09-01T16:41:15.314Z,1.40
2017-09-01T16:43:43.639Z,1.53
2017-09-01T16:46:11.986Z,1.37
2017-09-01T16:48:40.299Z,1.10
2017-09-01T16:51:08.623Z,1.20
2017-09-01T16:53:36.974Z,1.20
2017-09-01T16:56:05.294Z,0.70
2017-09-01T16:58:33.618Z,1.50
2017-09-01T17:01:01.969Z,1.20
2017-09-01T17:03:30.288Z,1.37
2017-09-01T17:06:00.095Z,0.90
2017-09-01T17:08:28.574Z,1.10
2017-09-01T17:10:56.908Z,1.10
2017-09-01T17:13:25.994Z,1.10
2017-09-01T17:15:54.350Z,0.90
2017-09-01T17:18:22.681Z,0.80
2017-09-01T17:20:51.007Z,1.07
2017-09-01T17:23:19.342Z,0.97
2017-09-01T17:25:47.698Z,1.00
2017-09-01T17:28:16.011Z,0.90
2017-09-01T17:30:44.352Z,0.87
2017-09-01T17:33:12.678Z,0.97
2017-09-01T17:35:40.994Z,1.03
2017-09-01T17:38:10.110Z,1.20
2017-09-01T17:40:38.418Z,1.03
2017-09-01T17:43:06.763Z,1.10
2017-09-01T17:45:35.074Z,1.27
2017-09-01T17:48:03.399Z,0.77
2017-09-01T17:50:31.754Z,1.10
2017-09-01T17:53:00.072Z,1.30
2017-09-01T17:55:28.387Z,1.47
2017-09-01T17:57:56.727Z,2.20
2017-09-01T18:00:25.044Z,2.00
2017-09-01T18:02:53.362Z,2.27
2017-09-01T18:05:21.703Z,1.83
2017-09-01T18:07:50.039Z,1.87
2017-09-01T18:10:18.351Z,1.93
2017-09-01T18:12:46.694Z,1.97
2017-09-01T18:15:15.008Z,1.80
2017-09-01T18:17:43.350Z,2.13
2017-09-01T18:20:11.662Z,1.60
2017-09-01T18:22:39.970Z,2.80
2017-09-01T18:25:08.310Z,1.73
2017-09-01T18:27:36.627Z,1.60
2017-09-01T18:30:04.939Z,1.80
2017-09-01T18:32:33.281Z,1.90
2017-09-01T18:35:01.601Z,1.90
2017-09-01T18:37:30.698Z,1.60
2017-09-01T18:39:59.049Z,1.80
2017-09-01T18:42:27.370Z,1.53
2017-09-01T18:44:55.682Z,1.50
2017-09-01T18:47:24.022Z,1.40
2017-09-01T18:49:52.338Z,1.23
2017-09-01T18:52:20.650Z,1.20
2017-09-01T18:54:48.992Z,0.90
2017-09-01T18:57:17.311Z,1.20
2017-09-01T18:59:45.627Z,0.87
2017-09-01T19:02:13.966Z,1.10
2017-09-01T19:04:42.278Z,0.93
2017-09-01T19:07:10.602Z,1.10
2017-09-01T19:09:38.942Z,1.10
2017-09-01T19:12:07.254Z,0.90
2017-09-01T19:14:35.598Z,1.00
2017-09-01T19:17:03.917Z,1.20
2017-09-01T19:19:32.255Z,1.07
2017-09-01T19:22:00.578Z,1.17
2017-09-01T19:24:28.917Z,0.90
2017-09-01T19:26:57.237Z,1.13
2017-09-01T19:29:25.574Z,0.83
2017-09-01T19:31:53.899Z,0.70
2017-09-01T19:34:22.239Z,0.73
2017-09-01T19:36:50.555Z,0.73
2017-09-01T19:39:18.865Z,0.90
2017-09-01T19:41:47.202Z,1.10
2017-09-01T19:44:15.516Z,1.03
2017-09-01T19:46:43.864Z,1.13
2017-09-01T19:49:12.193Z,12.70
2017-09-01T19:51:40.508Z,1.00
2017-09-01T19:54:08.853Z,0.93
2017-09-01T19:56:37.174Z,0.83
2017-09-01T19:59:05.515Z,1.00
2017-09-01T20:01:33.830Z,0.73
2017-09-01T20:04:02.151Z,0.50
2017-09-01T20:06:30.498Z,0.53
2017-09-01T20:08:58.820Z,0.50
2017-09-01T20:11:27.159Z,0.70
2017-09-01T20:13:55.482Z,1.97
2017-09-01T20:16:23.803Z,1.60
2017-09-01T20:18:52.148Z,1.07
2017-09-01T20:21:20.458Z,0.80
2017-09-01T20:23:48.807Z,0.70
2017-09-01T20:26:17.128Z,1.00
2017-09-01T20:28:45.440Z,0.80
2017-09-01T20:31:13.776Z,0.80
2017-09-01T20:33:42.134Z,0.60
2017-09-01T20:36:10.487Z,0.63
2017-09-01T20:38:38.802Z,1.00
2017-09-01T20:41:07.115Z,1.03
2017-09-01T20:43:35.458Z,0.83
2017-09-01T20:46:03.770Z,0.63
2017-09-01T20:48:32.095Z,0.70
2017-09-01T20:51:00.434Z,0.60
2017-09-01T20:53:28.750Z,1.07
2017-09-01T20:55:57.082Z,0.67
2017-09-01T20:58:25.402Z,0.80
2017-09-01T21:00:53.752Z,0.70
2017-09-01T21:03:22.064Z,0.70
2017-09-01T21:05:50.378Z,0.60
2017-09-01T21:08:18.711Z,0.60
2017-09-01T21:10:47.025Z,0.50
2017-09-01T21:13:15.364Z,0.60
2017-09-01T21:15:43.677Z,1.00
2017-09-01T21:18:12.157Z,0.70
2017-09-01T21:20:40.609Z,0.63
2017-09-01T21:23:08.990Z,0.50
2017-09-01T21:25:37.314Z,0.60
2017-09-01T21:28:05.650Z,0.70
2017-09-01T21:30:34.021Z,0.80
2017-09-01T21:33:02.334Z,0.97
2017-09-01T21:35:30.704Z,0.80
2017-09-01T21:37:59.100Z,0.60
2017-09-01T21:40:27.429Z,0.87
2017-09-01T21:42:55.767Z,0.90
2017-09-01T21:45:24.078Z,1.30
2017-09-01T21:47:52.413Z,0.73
2017-09-01T21:50:20.722Z,1.10
2017-09-01T21:52:49.078Z,0.93
2017-09-01T21:55:17.398Z,0.70
2017-09-01T21:57:45.734Z,0.80
2017-09-01T22:00:14.046Z,1.03
2017-09-01T22:02:42.390Z,1.00
2017-09-01T22:05:10.719Z,0.80
2017-09-01T22:07:39.030Z,0.70
2017-09-01T22:10:07.390Z,1.00
2017-09-01T22:12:35.730Z,0.90
2017-09-01T22:15:04.042Z,1.20
2017-09-01T22:17:32.354Z,0.90
2017-09-01T22:20:00.694Z,0.77
2017-09-01T22:22:29.007Z,1.13
2017-09-01T22:24:57.319Z,0.70
2017-09-01T22:27:25.660Z,0.80
2017-09-01T22:29:53.986Z,0.90
2017-09-01T22:32:22.298Z,0.90
2017-09-01T22:34:50.642Z,1.37
2017-09-01T22:37:18.954Z,0.80
2017-09-01T22:39:47.266Z,0.80
2017-09-01T22:42:15.610Z,1.10
2017-09-01T22:44:43.922Z,1.00
2017-09-01T22:47:12.234Z,0.83
2017-09-01T22:49:40.592Z,1.07
2017-09-01T22:52:08.926Z,0.93
2017-09-01T22:54:37.242Z,0.63
2017-09-01T22:57:05.578Z,1.00
2017-09-01T22:59:33.896Z,1.97
2017-09-01T23:02:02.234Z,0.70
2017-09-01T23:04:30.586Z,1.00
2017-09-01T23:06:58.912Z,0.90
2017-09-01T23:09:27.230Z,0.80
2017-09-01T23:11:55.565Z,0.97
2017-09-01T23:14:23.887Z,0.83
2017-09-01T23:16:52.248Z,1.13
2017-09-01T23:19:20.562Z,1.00
2017-09-01T23:21:48.870Z,1.23
2017-09-01T23:24:17.218Z,1.00
2017-09-01T23:26:45.534Z,1.00
2017-09-01T23:29:13.856Z,1.10
2017-09-01T23:31:42.195Z,1.00
2017-09-01T23:34:10.517Z,0.70
2017-09-01T23:36:38.859Z,1.17
2017-09-01T23:39:07.175Z,0.90
2017-09-01T23:41:35.488Z,0.97
2017-09-01T23:44:03.841Z,1.00
2017-09-01T23:46:32.279Z,1.00
2017-09-01T23:49:00.622Z,1.37
2017-09-01T23:51:29.035Z,1.37
2017-09-01T23:53:57.852Z,1.13
2017-09-01T23:56:26.371Z,1.33
2017-09-01T23:58:54.697Z,1.40
